aviador You're here:

KCKV Decoded Metar

CLARKSVILLE in TN, USA
Report Time2017-07-24 21:52:00
UTC Time2017-07-24 22:30:18
Flight Rules vfr VFR
Wind260° at 05 kt
W.Decomp.*RWY 23: 4.3 kt HW 2.6 kt RCW
RWY 35: 0.1 kt HW 5 kt LCW
W.Rank260° ranks 25
Current wind is below 260° avg. (7.1)
Visibility9999 m
Phenomena:N/A
Clouds:N/A
Expected CloudBase > 3,200 ft AGL from Temp-Dew spread
CeilingNone
Temp31°C (ISA +17)
Dew Point23°C (62% RH)
Heat Index35.4°C
QNH1014 hPa
Density Alt2,831 ft
Elevation541 ft
Report Wrong Elevation
Raw Report
KCKV 242152Z AUTO 26005KT 10SM CLR 31/23 A2993 RMK AO2 SLP130
T03110228=

Extra information for KCKV:More info

Metar Taf Metar & Taf Last 4 Metars F.Rules Stats Wind Profile Meteogram Temp Stats Airport Information Weather charts Add Link Nearby VenuesMetar ALERT Operation Metar Decoded Social comments

AIRNAV info for KCKV